createdAt,value
2022-09-28T00:01:15.414Z,6.90
2022-09-28T00:03:43.884Z,6.90
2022-09-28T00:06:13.480Z,6.90
2022-09-28T00:08:41.644Z,6.90
2022-09-28T00:11:13.728Z,6.90
2022-09-28T00:13:43.885Z,6.90
2022-09-28T00:16:14.716Z,6.90
2022-09-28T00:18:43.579Z,6.80
2022-09-28T00:21:14.043Z,6.80
2022-09-28T00:23:57.275Z,6.80
2022-09-28T00:26:25.966Z,6.80
2022-09-28T00:28:55.899Z,6.80
2022-09-28T00:31:25.071Z,6.70
2022-09-28T00:33:55.226Z,6.70
2022-09-28T00:36:23.186Z,6.70
2022-09-28T00:38:52.233Z,6.70
2022-09-28T00:41:20.202Z,6.70
2022-09-28T00:43:48.140Z,6.70
2022-09-28T00:46:20.750Z,6.70
2022-09-28T00:48:55.986Z,6.70
2022-09-28T00:51:26.657Z,6.80
2022-09-28T00:53:56.681Z,6.80
2022-09-28T00:56:28.509Z,6.90
2022-09-28T00:58:57.164Z,6.90
2022-09-28T01:01:27.430Z,6.90
2022-09-28T01:03:55.500Z,6.90
2022-09-28T01:06:27.518Z,6.90
2022-09-28T01:08:59.309Z,6.90
2022-09-28T01:11:28.784Z,6.80
2022-09-28T01:13:58.526Z,6.90
2022-09-28T01:16:33.722Z,6.90
2022-09-28T01:19:13.224Z,6.90
2022-09-28T01:21:50.135Z,6.90
2022-09-28T01:24:37.291Z,6.90
2022-09-28T01:27:13.784Z,6.80
2022-09-28T01:29:52.802Z,6.90
2022-09-28T01:32:37.304Z,6.80
2022-09-28T01:35:10.382Z,6.80
2022-09-28T01:37:45.304Z,6.80
2022-09-28T01:40:14.799Z,6.80
2022-09-28T01:42:45.848Z,6.80
2022-09-28T01:45:21.677Z,6.70
2022-09-28T01:47:51.743Z,6.70
2022-09-28T01:50:23.673Z,6.80
2022-09-28T01:52:55.703Z,6.80
2022-09-28T01:55:30.765Z,6.80
2022-09-28T01:58:05.818Z,6.80
2022-09-28T02:00:37.056Z,6.90
2022-09-28T02:03:11.038Z,6.90
2022-09-28T02:05:41.998Z,6.80
2022-09-28T02:08:14.312Z,6.70
2022-09-28T02:10:45.185Z,6.60
2022-09-28T02:13:19.663Z,6.50
2022-09-28T02:15:52.699Z,6.40
2022-09-28T02:18:20.783Z,6.30
2022-09-28T02:20:56.902Z,6.20
2022-09-28T02:23:27.569Z,6.20
2022-09-28T02:26:02.314Z,6.10
2022-09-28T02:28:31.788Z,6.10
2022-09-28T02:30:59.567Z,6.00
2022-09-28T02:33:32.118Z,6.00
2022-09-28T02:36:01.681Z,5.90
2022-09-28T02:38:29.470Z,5.90
2022-09-28T02:41:05.831Z,5.90
2022-09-28T02:43:49.939Z,5.90
2022-09-28T02:46:28.577Z,5.80
2022-09-28T02:49:21.429Z,5.80
2022-09-28T02:52:02.931Z,5.80
2022-09-28T02:55:14.331Z,5.80
2022-09-28T02:57:54.911Z,5.80
2022-09-28T03:00:25.477Z,5.80
2022-09-28T03:03:02.019Z,5.80
2022-09-28T03:05:39.534Z,5.80
2022-09-28T03:08:14.990Z,5.80
2022-09-28T03:10:47.702Z,5.90
2022-09-28T03:13:17.366Z,5.90
2022-09-28T03:15:49.023Z,5.90
2022-09-28T03:18:17.337Z,6.00
2022-09-28T03:20:45.544Z,6.00
2022-09-28T03:23:24.241Z,6.00
2022-09-28T03:25:53.027Z,6.00
2022-09-28T03:28:21.924Z,6.00
2022-09-28T03:30:51.590Z,6.10
2022-09-28T03:33:19.985Z,6.10
2022-09-28T03:35:49.003Z,6.10
2022-09-28T03:38:16.997Z,6.10
2022-09-28T03:40:45.454Z,6.10
2022-09-28T03:43:13.831Z,6.10
2022-09-28T03:45:41.902Z,6.20
2022-09-28T03:48:11.296Z,6.20
2022-09-28T03:50:39.294Z,6.20
2022-09-28T03:53:07.241Z,6.30
2022-09-28T03:55:35.230Z,6.30
2022-09-28T03:58:03.219Z,6.30
2022-09-28T04:00:31.225Z,6.30
2022-09-28T04:02:59.171Z,6.30
2022-09-28T04:05:28.445Z,6.30
2022-09-28T04:07:57.818Z,6.30
2022-09-28T04:10:25.980Z,6.30
2022-09-28T04:12:55.983Z,6.30
2022-09-28T04:15:24.310Z,6.30
2022-09-28T04:17:52.752Z,6.20
2022-09-28T04:20:20.954Z,6.20
2022-09-28T04:22:50.346Z,6.10
2022-09-28T04:25:18.430Z,6.10
2022-09-28T04:28:04.099Z,6.10
2022-09-28T04:30:32.104Z,6.00
2022-09-28T04:33:00.030Z,6.00
2022-09-28T04:35:27.975Z,6.00
2022-09-28T04:37:57.323Z,5.90
2022-09-28T04:40:25.525Z,5.90
2022-09-28T04:42:57.019Z,5.80
2022-09-28T04:45:26.195Z,5.80
2022-09-28T04:47:54.568Z,5.70
2022-09-28T04:50:22.586Z,5.70
2022-09-28T04:52:50.542Z,5.70
2022-09-28T04:55:20.593Z,5.70
2022-09-28T04:57:48.585Z,5.70
2022-09-28T05:00:17.218Z,5.70
2022-09-28T05:02:45.445Z,5.70
2022-09-28T05:05:13.534Z,5.60
2022-09-28T05:07:41.856Z,5.60
2022-09-28T05:10:10.051Z,5.60
2022-09-28T05:12:39.409Z,5.60
2022-09-28T05:15:07.932Z,5.60
2022-09-28T05:17:35.904Z,5.50
2022-09-28T05:20:04.170Z,5.50
2022-09-28T05:22:32.142Z,5.50
2022-09-28T05:25:00.337Z,5.50
2022-09-28T05:27:28.331Z,5.60
2022-09-28T05:29:57.603Z,5.60
2022-09-28T05:32:25.554Z,5.70
2022-09-28T05:34:55.622Z,5.60
2022-09-28T05:37:23.603Z,5.70
2022-09-28T05:39:51.534Z,5.70
2022-09-28T05:42:19.573Z,5.80
2022-09-28T05:44:47.514Z,5.80
2022-09-28T05:47:16.979Z,5.80
2022-09-28T05:49:44.927Z,5.90
2022-09-28T05:52:12.928Z,5.90
2022-09-28T05:54:40.864Z,6.00
2022-09-28T05:57:08.886Z,6.10
2022-09-28T05:59:36.861Z,6.10
2022-09-28T06:02:06.341Z,6.20
2022-09-28T06:04:35.521Z,6.30
2022-09-28T06:07:03.453Z,6.30
2022-09-28T06:09:31.950Z,6.30
2022-09-28T06:12:00.393Z,6.30
2022-09-28T06:14:28.373Z,6.40
2022-09-28T06:16:56.382Z,6.50
2022-09-28T06:19:24.388Z,6.50
2022-09-28T06:21:53.656Z,6.60
2022-09-28T06:24:21.656Z,6.70
2022-09-28T06:26:49.571Z,6.80
2022-09-28T06:29:19.723Z,6.90
2022-09-28T06:31:48.455Z,7.00
2022-09-28T06:34:17.231Z,7.10
2022-09-28T06:36:45.441Z,7.20
2022-09-28T06:39:14.786Z,7.30
2022-09-28T06:41:42.824Z,7.40
2022-09-28T06:44:11.011Z,7.60
2022-09-28T06:46:39.313Z,7.70
2022-09-28T06:49:09.168Z,7.70
2022-09-28T06:51:37.766Z,7.80
2022-09-28T06:54:05.846Z,7.90
2022-09-28T06:56:35.155Z,8.10
2022-09-28T06:59:03.102Z,8.30
2022-09-28T07:01:31.147Z,8.50
2022-09-28T07:04:01.764Z,8.70
2022-09-28T07:06:31.452Z,9.00
2022-09-28T07:09:19.616Z,9.10
2022-09-28T07:11:52.631Z,9.20
2022-09-28T07:14:41.906Z,9.30
2022-09-28T07:17:14.036Z,9.40
2022-09-28T07:19:42.519Z,9.50
2022-09-28T07:22:18.437Z,9.60
2022-09-28T07:24:47.384Z,9.70
2022-09-28T07:27:16.769Z,9.80
2022-09-28T07:29:44.744Z,9.90
2022-09-28T07:32:12.717Z,10.20
2022-09-28T07:34:43.694Z,10.40
2022-09-28T07:37:12.418Z,10.50
2022-09-28T07:39:54.452Z,10.60
2022-09-28T07:42:23.899Z,10.70
2022-09-28T07:44:52.137Z,10.80
2022-09-28T07:47:29.623Z,10.90
2022-09-28T07:50:00.652Z,10.90
2022-09-28T07:52:28.820Z,11.00
2022-09-28T07:54:56.988Z,11.10
2022-09-28T07:57:26.325Z,11.10
2022-09-28T07:59:54.570Z,11.10
2022-09-28T08:02:23.101Z,11.20
2022-09-28T08:04:51.504Z,11.30
2022-09-28T08:07:23.640Z,11.30
2022-09-28T08:09:52.197Z,11.30
2022-09-28T08:12:21.123Z,11.40
2022-09-28T08:14:52.141Z,11.40
2022-09-28T08:17:20.174Z,11.40
2022-09-28T08:20:05.992Z,11.30
2022-09-28T08:22:33.971Z,11.30
2022-09-28T08:25:01.929Z,11.30
2022-09-28T08:27:29.871Z,11.20
2022-09-28T08:29:59.182Z,11.20
2022-09-28T08:32:27.115Z,11.20
2022-09-28T08:34:55.978Z,11.30
2022-09-28T08:37:23.938Z,11.40
2022-09-28T08:39:51.899Z,11.50
2022-09-28T08:42:34.521Z,11.50
2022-09-28T08:45:10.311Z,11.60
2022-09-28T08:48:06.578Z,11.60
2022-09-28T08:50:37.978Z,11.70
2022-09-28T08:53:21.753Z,11.90
2022-09-28T08:55:50.820Z,12.00
2022-09-28T08:58:23.195Z,12.10
2022-09-28T09:00:54.301Z,12.10
2022-09-28T09:03:29.096Z,12.20
2022-09-28T09:06:05.042Z,12.20
2022-09-28T09:08:50.023Z,12.30
2022-09-28T09:11:30.769Z,12.30
2022-09-28T09:14:15.863Z,12.30
2022-09-28T09:17:00.318Z,12.50
2022-09-28T09:19:36.266Z,12.60
2022-09-28T09:22:16.924Z,12.70
2022-09-28T09:24:50.971Z,12.90
2022-09-28T09:27:44.676Z,13.00
2022-09-28T09:30:18.528Z,13.00
2022-09-28T09:33:31.568Z,13.00
2022-09-28T09:36:19.838Z,13.10
2022-09-28T09:38:58.023Z,13.20
2022-09-28T09:41:36.041Z,13.20
2022-09-28T09:44:15.884Z,13.20
2022-09-28T09:46:49.166Z,13.20
2022-09-28T09:49:22.728Z,13.20
2022-09-28T09:51:58.131Z,13.20
2022-09-28T09:54:31.127Z,13.20
2022-09-28T09:57:04.301Z,13.30
2022-09-28T09:59:36.065Z,13.30
2022-09-28T10:02:13.579Z,13.40
2022-09-28T10:04:46.816Z,13.40
2022-09-28T10:07:22.391Z,13.50
2022-09-28T10:09:51.785Z,13.60
2022-09-28T10:12:22.666Z,13.70
2022-09-28T10:14:50.805Z,13.80
2022-09-28T10:17:26.716Z,13.90
2022-09-28T10:19:56.958Z,13.90
2022-09-28T10:22:28.168Z,14.00
2022-09-28T10:24:57.412Z,14.10
2022-09-28T10:27:29.030Z,14.10
2022-09-28T10:30:00.733Z,14.20
2022-09-28T10:32:37.573Z,14.30
2022-09-28T10:35:26.851Z,14.50
2022-09-28T10:37:59.220Z,14.50
2022-09-28T10:40:43.797Z,14.50
2022-09-28T10:43:22.808Z,14.50
2022-09-28T10:46:01.694Z,14.50
2022-09-28T10:48:38.035Z,14.50
2022-09-28T10:51:08.739Z,14.50
2022-09-28T10:53:39.909Z,14.50
2022-09-28T10:56:19.139Z,14.40
2022-09-28T10:58:47.188Z,14.40
2022-09-28T11:01:19.572Z,14.40
2022-09-28T11:03:56.014Z,14.40
2022-09-28T11:06:28.136Z,14.40
2022-09-28T11:08:58.516Z,14.40
2022-09-28T11:11:28.654Z,14.40
2022-09-28T11:14:01.049Z,14.40
2022-09-28T11:16:30.851Z,14.40
2022-09-28T11:19:00.124Z,14.30
2022-09-28T11:21:32.486Z,14.30
2022-09-28T11:24:08.377Z,14.30
2022-09-28T11:26:40.718Z,14.30
2022-09-28T11:29:21.197Z,14.20
2022-09-28T11:31:49.437Z,14.20
2022-09-28T11:34:31.524Z,14.10
2022-09-28T11:37:33.697Z,14.10
2022-09-28T11:40:16.560Z,14.00
2022-09-28T11:42:53.449Z,14.00
2022-09-28T11:45:36.089Z,14.00
2022-09-28T11:48:07.091Z,14.00
2022-09-28T11:50:43.630Z,14.10
2022-09-28T11:53:23.996Z,14.00
2022-09-28T11:55:57.259Z,14.20
2022-09-28T11:58:30.936Z,14.30
2022-09-28T12:01:05.018Z,14.30
2022-09-28T12:03:40.739Z,14.30
2022-09-28T12:06:13.684Z,14.40
2022-09-28T12:08:46.784Z,14.40
2022-09-28T12:11:19.212Z,14.40
2022-09-28T12:13:48.984Z,14.50
2022-09-28T12:16:46.856Z,14.40
2022-09-28T12:19:18.007Z,14.30
2022-09-28T12:21:51.198Z,14.20
2022-09-28T12:24:26.073Z,14.10
2022-09-28T12:26:57.890Z,14.00
2022-09-28T12:29:32.801Z,13.90
2022-09-28T12:32:10.526Z,13.90
2022-09-28T12:34:38.509Z,13.90
2022-09-28T12:37:21.772Z,13.80
2022-09-28T12:40:08.095Z,13.70
2022-09-28T12:43:00.113Z,13.70
2022-09-28T12:46:09.933Z,13.80
2022-09-28T12:49:36.722Z,13.70
2022-09-28T12:51:52.403Z,13.50
2022-09-28T12:54:39.870Z,13.50
2022-09-28T12:57:26.966Z,13.40
2022-09-28T13:00:03.288Z,13.40
2022-09-28T13:03:11.130Z,13.30
2022-09-28T13:06:09.525Z,13.20
2022-09-28T13:08:46.673Z,13.10
2022-09-28T13:11:24.137Z,13.00
2022-09-28T13:14:03.225Z,12.90
2022-09-28T13:16:38.848Z,13.00
2022-09-28T13:19:16.848Z,13.00
2022-09-28T13:21:52.212Z,13.00
2022-09-28T13:24:33.879Z,13.00
2022-09-28T13:27:07.849Z,13.00
2022-09-28T13:32:12.840Z,13.10
2022-09-28T13:34:41.176Z,13.10
2022-09-28T13:37:21.508Z,13.10
2022-09-28T13:39:52.693Z,13.20
2022-09-28T13:42:37.544Z,13.20
2022-09-28T13:45:32.307Z,13.20
2022-09-28T13:48:12.539Z,13.10
2022-09-28T13:51:05.300Z,13.10
2022-09-28T13:53:48.205Z,13.10
2022-09-28T13:56:28.207Z,13.10
2022-09-28T13:59:02.000Z,13.10
2022-09-28T14:01:38.589Z,13.00
2022-09-28T14:04:17.500Z,12.90
2022-09-28T14:06:55.645Z,12.90
2022-09-28T14:09:45.481Z,12.90
2022-09-28T14:12:45.570Z,12.90
2022-09-28T14:15:43.659Z,12.80
2022-09-28T14:18:28.934Z,12.80
2022-09-28T14:21:30.493Z,12.70
2022-09-28T14:24:09.844Z,12.70
2022-09-28T14:27:06.873Z,12.70
2022-09-28T14:29:37.777Z,12.70
2022-09-28T14:32:22.815Z,12.60
2022-09-28T14:34:59.400Z,12.60
2022-09-28T14:37:48.909Z,12.50
2022-09-28T14:40:34.494Z,12.50
2022-09-28T14:43:26.726Z,12.50
2022-09-28T14:46:29.143Z,12.50
2022-09-28T14:48:58.331Z,12.40
2022-09-28T14:52:07.420Z,12.40
2022-09-28T14:54:54.979Z,12.50
2022-09-28T14:57:27.090Z,12.50
2022-09-28T14:59:59.482Z,12.40
2022-09-28T15:02:32.364Z,12.50
2022-09-28T15:05:10.831Z,12.40
2022-09-28T15:07:49.433Z,12.40
2022-09-28T15:10:27.884Z,12.40
2022-09-28T15:12:57.605Z,12.40
2022-09-28T15:15:28.226Z,12.30
2022-09-28T15:18:05.476Z,12.30
2022-09-28T15:20:37.980Z,12.30
2022-09-28T15:23:27.053Z,12.20
2022-09-28T15:25:56.597Z,12.20
2022-09-28T15:28:25.081Z,12.10
2022-09-28T15:30:59.678Z,12.10
2022-09-28T15:33:46.991Z,12.10
2022-09-28T15:36:19.319Z,12.00
2022-09-28T15:38:57.247Z,11.90
2022-09-28T15:41:26.595Z,11.80
2022-09-28T15:44:08.395Z,11.80
2022-09-28T15:46:38.557Z,11.70
2022-09-28T15:49:08.322Z,11.70
2022-09-28T15:51:49.104Z,11.60
2022-09-28T15:54:24.795Z,11.60
2022-09-28T15:56:54.941Z,11.50
2022-09-28T15:59:31.710Z,11.40
2022-09-28T16:02:13.316Z,11.40
2022-09-28T16:04:48.076Z,11.30
2022-09-28T16:07:22.047Z,11.30
2022-09-28T16:10:04.658Z,11.20
2022-09-28T16:12:43.249Z,11.20
2022-09-28T16:15:20.354Z,11.10
2022-09-28T16:17:54.869Z,11.10
2022-09-28T16:20:29.819Z,11.00
2022-09-28T16:23:05.570Z,11.00
2022-09-28T16:25:39.383Z,11.00
2022-09-28T16:28:08.990Z,11.00
2022-09-28T16:30:36.790Z,11.00
2022-09-28T16:33:06.740Z,10.90
2022-09-28T16:35:51.214Z,10.90
2022-09-28T16:38:20.587Z,10.90
2022-09-28T16:40:53.677Z,10.80
2022-09-28T16:43:26.676Z,10.80
2022-09-28T16:45:56.636Z,10.70
2022-09-28T16:48:27.032Z,10.70
2022-09-28T16:50:55.063Z,10.70
2022-09-28T16:53:46.288Z,10.70
2022-09-28T16:56:15.681Z,10.60
2022-09-28T16:58:44.137Z,10.60
2022-09-28T17:01:13.414Z,10.60
2022-09-28T17:03:46.565Z,10.60
2022-09-28T17:06:16.293Z,10.50
2022-09-28T17:08:45.002Z,10.50
2022-09-28T17:11:22.765Z,10.40
2022-09-28T17:13:51.996Z,10.30
2022-09-28T17:16:42.620Z,10.30
2022-09-28T17:19:20.083Z,10.20
2022-09-28T17:21:48.743Z,10.20
2022-09-28T17:24:17.399Z,10.10
2022-09-28T17:26:47.738Z,10.10
2022-09-28T17:29:16.868Z,10.10
2022-09-28T17:31:46.689Z,10.00
2022-09-28T17:34:16.507Z,10.00
2022-09-28T17:36:45.764Z,10.00
2022-09-28T17:39:14.649Z,9.90
2022-09-28T17:41:42.663Z,9.90
2022-09-28T17:44:14.662Z,9.90
2022-09-28T17:46:46.302Z,9.80
2022-09-28T17:49:14.843Z,9.70
2022-09-28T17:51:43.075Z,9.70
2022-09-28T17:54:12.876Z,9.70
2022-09-28T17:56:42.372Z,9.70
2022-09-28T17:59:13.724Z,9.60
2022-09-28T18:01:41.891Z,9.60
2022-09-28T18:04:33.178Z,9.60
2022-09-28T18:07:03.092Z,9.50
2022-09-28T18:09:31.315Z,9.50
2022-09-28T18:12:01.269Z,9.50
2022-09-28T18:14:30.638Z,9.50
2022-09-28T18:16:58.628Z,9.40
2022-09-28T18:19:31.757Z,9.50
2022-09-28T18:22:01.237Z,9.40
2022-09-28T18:24:29.367Z,9.40
2022-09-28T18:26:57.383Z,9.40
2022-09-28T18:29:28.015Z,9.30
2022-09-28T18:31:59.611Z,9.40
2022-09-28T18:34:27.609Z,9.30
2022-09-28T18:36:55.569Z,9.30
2022-09-28T18:39:24.225Z,9.30
2022-09-28T18:41:52.250Z,9.30
2022-09-28T18:44:20.289Z,9.20
2022-09-28T18:46:48.572Z,9.20
2022-09-28T18:49:17.968Z,9.20
2022-09-28T18:51:45.896Z,9.20
2022-09-28T18:54:14.123Z,9.20
2022-09-28T18:56:42.164Z,9.20
2022-09-28T18:59:12.570Z,9.20
2022-09-28T19:01:41.587Z,9.10
2022-09-28T19:04:11.742Z,9.10
2022-09-28T19:06:42.432Z,9.10
2022-09-28T19:09:10.621Z,9.10
2022-09-28T19:11:38.913Z,9.10
2022-09-28T19:14:06.924Z,9.00
2022-09-28T19:16:34.931Z,9.00
2022-09-28T19:19:03.226Z,9.00
2022-09-28T19:21:31.870Z,9.00
2022-09-28T19:24:04.309Z,9.00
2022-09-28T19:26:33.442Z,9.00
2022-09-28T19:29:02.827Z,9.00
2022-09-28T19:31:31.274Z,9.00
2022-09-28T19:33:59.944Z,8.90
2022-09-28T19:36:28.477Z,8.90
2022-09-28T19:38:57.980Z,8.90
2022-09-28T19:41:49.458Z,8.80
2022-09-28T19:44:24.765Z,8.80
2022-09-28T19:46:54.498Z,8.80
2022-09-28T19:49:23.802Z,8.80
2022-09-28T19:52:13.859Z,8.80
2022-09-28T19:54:44.869Z,8.70
2022-09-28T19:57:15.835Z,8.80
2022-09-28T19:59:44.476Z,8.70
2022-09-28T20:02:14.032Z,8.70
2022-09-28T20:04:41.863Z,8.70
2022-09-28T20:07:09.810Z,8.70
2022-09-28T20:09:37.806Z,8.70
2022-09-28T20:12:05.933Z,8.70
2022-09-28T20:14:38.304Z,8.60
2022-09-28T20:17:08.696Z,8.60
2022-09-28T20:19:36.663Z,8.60
2022-09-28T20:22:04.978Z,8.60
2022-09-28T20:24:33.559Z,8.60
2022-09-28T20:27:02.387Z,8.60
2022-09-28T20:29:31.564Z,8.60
2022-09-28T20:32:01.158Z,8.60
2022-09-28T20:34:29.115Z,8.50
2022-09-28T20:36:57.047Z,8.50
2022-09-28T20:39:24.999Z,8.50
2022-09-28T20:41:53.529Z,8.50
2022-09-28T20:44:21.650Z,8.50
2022-09-28T20:46:51.230Z,8.50
2022-09-28T20:49:20.452Z,8.50
2022-09-28T20:51:48.516Z,8.50
2022-09-28T20:54:16.595Z,8.50
2022-09-28T20:56:44.770Z,8.40
2022-09-28T20:59:13.528Z,8.40
2022-09-28T21:01:41.876Z,8.40
2022-09-28T21:04:11.310Z,8.40
2022-09-28T21:06:42.536Z,8.30
2022-09-28T21:09:12.200Z,8.40
2022-09-28T21:11:40.268Z,8.30
2022-09-28T21:14:09.549Z,8.30
2022-09-28T21:16:37.951Z,8.30
2022-09-28T21:19:06.130Z,8.30
2022-09-28T21:21:34.369Z,8.30
2022-09-28T21:24:03.872Z,8.30
2022-09-28T21:26:31.830Z,8.30
2022-09-28T21:29:01.818Z,8.30
2022-09-28T21:31:32.426Z,8.30
2022-09-28T21:34:00.787Z,8.30
2022-09-28T21:36:28.740Z,8.30
2022-09-28T21:38:56.747Z,8.20
2022-09-28T21:41:26.638Z,8.20
2022-09-28T21:43:54.624Z,8.30
2022-09-28T21:46:22.796Z,8.20
2022-09-28T21:48:53.662Z,8.20
2022-09-28T21:51:22.058Z,8.20
2022-09-28T21:53:50.273Z,8.20
2022-09-28T21:56:18.489Z,8.20
2022-09-28T21:58:48.287Z,8.20
2022-09-28T22:01:18.106Z,8.30
2022-09-28T22:03:47.884Z,8.20
2022-09-28T22:06:17.003Z,8.20
2022-09-28T22:08:45.216Z,8.20
2022-09-28T22:11:15.341Z,8.20
2022-09-28T22:13:44.899Z,8.20
2022-09-28T22:16:15.205Z,8.20
2022-09-28T22:18:43.601Z,8.20
2022-09-28T22:21:14.830Z,8.20
2022-09-28T22:23:43.306Z,8.20
2022-09-28T22:26:13.831Z,8.20
2022-09-28T22:28:47.311Z,8.10
2022-09-28T22:31:17.237Z,8.20
2022-09-28T22:33:45.533Z,8.10
2022-09-28T22:36:14.934Z,8.20
2022-09-28T22:38:43.331Z,8.20
2022-09-28T22:41:11.776Z,8.10
2022-09-28T22:43:39.828Z,8.10
2022-09-28T22:46:09.695Z,8.20
2022-09-28T22:48:39.303Z,8.10
2022-09-28T22:51:07.723Z,8.10
2022-09-28T22:53:36.227Z,8.10
2022-09-28T22:56:05.893Z,8.00
2022-09-28T22:58:34.305Z,8.10
2022-09-28T23:01:07.505Z,8.00
2022-09-28T23:03:35.867Z,8.00
2022-09-28T23:06:05.295Z,8.00
2022-09-28T23:08:34.459Z,8.00
2022-09-28T23:11:02.802Z,8.00
2022-09-28T23:13:31.381Z,8.00
2022-09-28T23:16:00.934Z,8.00
2022-09-28T23:18:29.922Z,8.00
2022-09-28T23:20:59.364Z,8.00
2022-09-28T23:23:29.416Z,8.00
2022-09-28T23:25:57.636Z,8.00
2022-09-28T23:28:27.094Z,8.00
2022-09-28T23:30:55.476Z,8.00
2022-09-28T23:33:23.668Z,8.00
2022-09-28T23:35:51.695Z,8.00
2022-09-28T23:38:19.711Z,8.10
2022-09-28T23:40:49.271Z,8.00
2022-09-28T23:43:17.060Z,8.00
2022-09-28T23:45:45.462Z,8.00
2022-09-28T23:48:15.099Z,8.00
2022-09-28T23:50:43.393Z,8.00
2022-09-28T23:53:11.886Z,8.00
2022-09-28T23:55:39.943Z,8.00
2022-09-28T23:58:09.528Z,8.00
